Decoded Metar for KANK ( in ) (IATA:) | Meteo·Mobile Aviation Weather
aviador You're here:

KANK Decoded Metar

in
Report Time2018-10-18 16:35:00
UTC Time2018-10-18 16:52:52
Flight Rules vfr VFR
Wind350° at 03 kt
W.Decomp.*RWY 06: 1.0 kt HW 2.8 kt LCW
W.Rank350° ranks 19
Current wind is below 350° avg. (6.5)
Visibility9999 m
Phenomena:N/A
Clouds:Scattered 075 Hf
Expected CloudBase > 1,600 ft AGL from Temp-Dew spread
CeilingNone
Temp07°C
Dew Point03°C (76% RH)
AAT4.4°C
QNH1030 hPa
Raw Report
KANK 181635Z AUTO 35003KT 10SM SCT075 07/03 A3043 RMK AO1
T00710031=

Extra information for KANK:More info

Social comments